Time;durP1;ratioP1;P1;durP2;ratioP2;P2;SDS_P1;SDS_P2;PMS_P1;PMS_P2;Temp;Humidity;BMP_temperature;BMP_pressure;BME280_temperature;BME280_humidity;BME280_pressure;Samples;Min_cycle;Max_cycle;Signal;HPM_P1;HPM_P2
2021/12/13 00:02:00;;;;;;;;;;;4.10;99.90;;;;;;5045415;28;20323;-75
2021/12/13 00:04:34;;;;;;;;;;;4.10;99.90;;;;;;5050541;28;20400;-74
2021/12/13 00:07:03;;;;;;;;;;;4.10;99.90;;;;;;5047041;28;19913;-74
2021/12/13 00:09:30;;;;;;;;;;;4.20;99.90;;;;;;5043590;28;19908;-74
2021/12/13 00:12:00;;;;;;;;;;;4.20;99.90;;;;;;5050803;28;19909;-74
2021/12/13 00:14:29;;;;;;;;;;;4.20;99.90;;;;;;5050094;28;19913;-74
2021/12/13 00:17:00;;;;;;;;;;;4.20;99.90;;;;;;5050093;28;19909;-74
2021/12/13 00:19:31;;;;;;;;;;;4.20;99.90;;;;;;5052039;28;20342;-74
2021/12/13 00:22:02;;;;;;;;;;;4.20;99.90;;;;;;5053097;28;19981;-75
2021/12/13 00:24:31;;;;;;;;;;;4.20;99.90;;;;;;5052467;28;19963;-75
2021/12/13 00:27:05;;;;;;;;;;;4.20;99.90;;;;;;5049719;28;19924;-74
2021/12/13 00:29:41;;;;;;;;;;;4.20;99.90;;;;;;5047557;28;19932;-74
2021/12/13 00:32:29;;;;;;;;;;;4.20;99.90;;;;;;5053160;28;19913;-74
2021/12/13 00:34:57;;;;;;;;;;;4.20;99.90;;;;;;5052635;28;19909;-74
2021/12/13 00:37:31;;;;;;;;;;;4.20;99.90;;;;;;5053166;28;19955;-74
2021/12/13 00:39:59;;;;;;;;;;;4.20;99.90;;;;;;5053466;28;19943;-74
2021/12/13 00:42:26;;;;;;;;;;;4.30;99.90;;;;;;5052886;28;19913;-74
2021/12/13 00:44:53;;;;;;;;;;;4.30;99.90;;;;;;5052003;28;19947;-74
2021/12/13 00:47:21;;;;;;;;;;;4.30;99.90;;;;;;5053030;28;19935;-74
2021/12/13 00:49:49;;;;;;;;;;;4.30;99.90;;;;;;5052903;28;19999;-74
2021/12/13 00:52:16;;;;;;;;;;;4.30;99.90;;;;;;5052789;28;20011;-74
2021/12/13 00:54:42;;;;;;;;;;;4.20;99.90;;;;;;5051818;28;20289;-74
2021/12/13 00:57:08;;;;;;;;;;;4.30;99.90;;;;;;5051775;28;19909;-74
2021/12/13 00:59:46;;;;;;;;;;;4.30;99.90;;;;;;5052508;28;20055;-74
2021/12/13 01:02:14;;;;;;;;;;;4.30;99.90;;;;;;5052613;28;19909;-74
2021/12/13 01:04:55;;;;;;;;;;;4.30;99.90;;;;;;5046083;28;19947;-74
2021/12/13 01:07:33;;;;;;;;;;;4.30;99.90;;;;;;5053035;28;20380;-74
2021/12/13 01:10:27;;;;;;;;;;;4.20;99.90;;;;;;5051065;28;20366;-74
2021/12/13 01:12:55;;;;;;;;;;;4.30;99.90;;;;;;5052369;28;19909;-74
2021/12/13 01:15:30;;;;;;;;;;;4.30;99.90;;;;;;5052283;28;20372;-74
2021/12/13 01:18:15;;;;;;;;;;;4.30;99.90;;;;;;5047638;28;20198;-74
2021/12/13 01:20:57;;;;;;;;;;;4.30;99.90;;;;;;5045617;28;19916;-74
2021/12/13 01:23:41;;;;;;;;;;;4.30;99.90;;;;;;5051766;28;19959;-74
2021/12/13 01:26:41;;;;;;;;;;;4.30;99.90;;;;;;5052608;28;20257;-74
2021/12/13 01:29:02;;;;;;;;;;;4.30;99.90;;;;;;5051086;28;19916;-75
2021/12/13 01:31:36;;;;;;;;;;;4.20;99.90;;;;;;5052041;28;19909;-74
2021/12/13 01:34:03;;;;;;;;;;;4.30;99.90;;;;;;5051727;28;20511;-74
2021/12/13 01:36:36;;;;;;;;;;;4.20;99.90;;;;;;5052121;28;19944;-74
2021/12/13 01:39:06;;;;;;;;;;;4.30;99.90;;;;;;5051926;28;19909;-74
2021/12/13 01:41:40;;;;;;;;;;;4.30;99.90;;;;;;5051882;28;19916;-74
2021/12/13 01:44:08;;;;;;;;;;;4.20;99.90;;;;;;5051461;28;20385;-74
2021/12/13 01:46:35;;;;;;;;;;;4.20;99.90;;;;;;5051931;28;19909;-74
2021/12/13 01:49:01;;;;;;;;;;;4.20;99.90;;;;;;5046520;28;20372;-74
2021/12/13 01:51:27;;;;;;;;;;;4.20;99.90;;;;;;5051682;28;20000;-74
2021/12/13 01:53:52;;;;;;;;;;;4.20;99.90;;;;;;5051434;28;20296;-74
2021/12/13 01:56:39;;;;;;;;;;;4.20;99.90;;;;;;5045216;28;20362;-74
2021/12/13 02:02:18;;;;;;;;;;;4.20;99.90;;;;;;5051381;28;19971;-75
2021/12/13 02:04:45;;;;;;;;;;;4.20;99.90;;;;;;5049944;28;19948;-75
2021/12/13 02:07:11;;;;;;;;;;;4.20;99.90;;;;;;5051620;28;19962;-74
2021/12/13 02:09:40;;;;;;;;;;;4.10;99.90;;;;;;5051581;28;19999;-74
2021/12/13 02:12:08;;;;;;;;;;;4.20;99.90;;;;;;5051435;28;19999;-74
2021/12/13 02:14:35;;;;;;;;;;;4.10;99.90;;;;;;5049132;28;19960;-74
2021/12/13 02:17:11;;;;;;;;;;;4.10;99.90;;;;;;5045343;28;19913;-74
2021/12/13 02:19:43;;;;;;;;;;;4.10;99.90;;;;;;5051393;28;19962;-74
2021/12/13 02:22:27;;;;;;;;;;;4.20;99.90;;;;;;5050467;28;19909;-74
2021/12/13 02:24:53;;;;;;;;;;;4.20;99.90;;;;;;5050649;28;19916;-74
2021/12/13 02:27:20;;;;;;;;;;;4.10;99.90;;;;;;5051245;28;19939;-74
2021/12/13 02:29:46;;;;;;;;;;;4.00;99.90;;;;;;5045058;28;19909;-74
2021/12/13 02:32:12;;;;;;;;;;;4.00;99.90;;;;;;5044662;28;19952;-74
2021/12/13 02:34:39;;;;;;;;;;;4.00;99.90;;;;;;5050808;28;19912;-74
2021/12/13 02:37:05;;;;;;;;;;;3.90;99.90;;;;;;5051121;28;19909;-74
2021/12/13 02:39:32;;;;;;;;;;;4.00;99.90;;;;;;5050986;28;20278;-74
2021/12/13 02:41:59;;;;;;;;;;;4.00;99.90;;;;;;5051052;28;20336;-75
2021/12/13 02:44:27;;;;;;;;;;;3.90;99.90;;;;;;5050965;28;20289;-74
2021/12/13 02:46:55;;;;;;;;;;;3.90;99.90;;;;;;5043562;28;19909;-74
2021/12/13 02:49:20;;;;;;;;;;;3.90;99.90;;;;;;5050712;28;19913;-74
2021/12/13 02:51:46;;;;;;;;;;;4.00;99.90;;;;;;5048771;28;19939;-74
2021/12/13 02:54:17;;;;;;;;;;;4.00;99.90;;;;;;5043773;28;20008;-74
2021/12/13 02:56:48;;;;;;;;;;;4.00;99.90;;;;;;5050869;28;19991;-74
2021/12/13 02:59:14;;;;;;;;;;;4.10;99.90;;;;;;5050970;28;19909;-74
2021/12/13 03:01:39;;;;;;;;;;;4.10;99.90;;;;;;5066288;28;19913;-74
2021/12/13 03:04:11;;;;;;;;;;;4.10;99.90;;;;;;5050466;28;19916;-74
2021/12/13 03:06:39;;;;;;;;;;;4.10;99.90;;;;;;5052452;28;20148;-74
2021/12/13 03:09:08;;;;;;;;;;;4.10;99.90;;;;;;5049807;28;19909;-73
2021/12/13 03:11:34;;;;;;;;;;;4.00;99.90;;;;;;5055181;28;20332;-74
2021/12/13 03:14:06;;;;;;;;;;;4.00;99.90;;;;;;5054298;28;20390;-74
2021/12/13 03:16:51;;;;;;;;;;;4.10;99.90;;;;;;5055151;28;20321;-74
2021/12/13 03:19:22;;;;;;;;;;;4.10;99.90;;;;;;5043779;28;19942;-74
2021/12/13 03:21:56;;;;;;;;;;;4.10;99.90;;;;;;5048130;28;19909;-74
2021/12/13 03:24:29;;;;;;;;;;;4.10;99.90;;;;;;5054073;28;19912;-74
2021/12/13 03:27:04;;;;;;;;;;;4.10;99.90;;;;;;5054349;28;19969;-74
2021/12/13 03:29:48;;;;;;;;;;;4.00;99.90;;;;;;5054093;28;19914;-74
2021/12/13 03:32:14;;;;;;;;;;;4.00;99.90;;;;;;5054077;28;19909;-74
2021/12/13 03:34:43;;;;;;;;;;;4.00;99.90;;;;;;5053858;28;20361;-74
2021/12/13 03:37:14;;;;;;;;;;;4.00;99.90;;;;;;5054172;28;19909;-74
2021/12/13 03:39:41;;;;;;;;;;;3.90;99.90;;;;;;5054083;28;19920;-74
2021/12/13 03:42:09;;;;;;;;;;;3.90;99.90;;;;;;5051291;28;19910;-74
2021/12/13 03:44:41;;;;;;;;;;;3.90;99.90;;;;;;5053126;28;19916;-74
2021/12/13 03:47:11;;;;;;;;;;;3.90;99.90;;;;;;5054045;28;19912;-74
2021/12/13 03:49:38;;;;;;;;;;;3.90;99.90;;;;;;5054013;28;19909;-74
2021/12/13 03:52:04;;;;;;;;;;;3.80;99.90;;;;;;5052839;28;19916;-74
2021/12/13 03:54:31;;;;;;;;;;;3.80;99.90;;;;;;5047337;28;19908;-74
2021/12/13 03:56:57;;;;;;;;;;;3.80;99.90;;;;;;5053708;28;19913;-74
2021/12/13 03:59:27;;;;;;;;;;;3.80;99.90;;;;;;5053701;28;19916;-74
2021/12/13 04:01:58;;;;;;;;;;;3.70;99.90;;;;;;5053481;28;20000;-74
2021/12/13 04:04:26;;;;;;;;;;;3.70;99.90;;;;;;5052946;28;20297;-74
2021/12/13 04:06:54;;;;;;;;;;;3.70;99.90;;;;;;5053715;28;20285;-74
2021/12/13 04:09:21;;;;;;;;;;;3.70;99.90;;;;;;5053401;28;19944;-74
2021/12/13 04:11:47;;;;;;;;;;;3.60;99.90;;;;;;5053453;28;19909;-74
2021/12/13 04:14:23;;;;;;;;;;;3.70;99.90;;;;;;5053387;28;19967;-74
2021/12/13 04:17:19;;;;;;;;;;;3.70;99.90;;;;;;5053262;28;20374;-74
2021/12/13 04:19:47;;;;;;;;;;;3.70;99.90;;;;;;5052608;28;19913;-74
2021/12/13 04:22:16;;;;;;;;;;;3.70;99.90;;;;;;5050332;28;19931;-74
2021/12/13 04:24:47;;;;;;;;;;;3.70;99.90;;;;;;5045566;28;19909;-74
2021/12/13 04:27:19;;;;;;;;;;;3.70;99.90;;;;;;5049609;28;20446;-74
2021/12/13 04:29:46;;;;;;;;;;;3.70;99.90;;;;;;5053059;28;20331;-74
2021/12/13 04:32:15;;;;;;;;;;;3.80;99.90;;;;;;5053218;28;19908;-74
2021/12/13 04:34:42;;;;;;;;;;;3.90;99.90;;;;;;5052758;28;19909;-74
2021/12/13 04:37:10;;;;;;;;;;;3.90;99.90;;;;;;5051788;28;19909;-74
2021/12/13 04:39:36;;;;;;;;;;;3.90;99.90;;;;;;5053093;28;19909;-75
2021/12/13 04:42:06;;;;;;;;;;;3.90;99.90;;;;;;5055154;28;19915;-74
2021/12/13 04:44:34;;;;;;;;;;;3.90;99.90;;;;;;5053727;28;19913;-74
2021/12/13 04:47:12;;;;;;;;;;;3.80;99.90;;;;;;5051658;28;20285;-74
2021/12/13 04:49:39;;;;;;;;;;;3.80;99.90;;;;;;5052964;28;19909;-74
2021/12/13 04:52:07;;;;;;;;;;;3.80;99.90;;;;;;5053082;28;19909;-74
2021/12/13 04:54:34;;;;;;;;;;;3.80;99.90;;;;;;5052349;28;19932;-74
2021/12/13 04:56:59;;;;;;;;;;;3.70;99.90;;;;;;5045730;28;19939;-74
2021/12/13 04:59:26;;;;;;;;;;;3.70;99.90;;;;;;5052547;28;20515;-74
2021/12/13 05:01:53;;;;;;;;;;;3.70;99.90;;;;;;5052609;28;20434;-74
2021/12/13 05:04:20;;;;;;;;;;;3.70;99.90;;;;;;5052232;28;19970;-74
2021/12/13 05:06:46;;;;;;;;;;;3.80;99.90;;;;;;5047287;28;19908;-74
2021/12/13 05:09:13;;;;;;;;;;;4.00;99.90;;;;;;5052439;28;19916;-74
2021/12/13 05:11:42;;;;;;;;;;;4.00;99.90;;;;;;5052618;28;19970;-74
2021/12/13 05:14:08;;;;;;;;;;;4.00;99.90;;;;;;5050344;28;19912;-74
2021/12/13 05:16:37;;;;;;;;;;;4.10;99.90;;;;;;5052039;28;20281;-74
2021/12/13 05:19:03;;;;;;;;;;;4.00;99.90;;;;;;5051068;28;19909;-74
2021/12/13 05:21:40;;;;;;;;;;;4.00;99.90;;;;;;5051435;28;19909;-74
2021/12/13 05:24:10;;;;;;;;;;;3.90;99.90;;;;;;5041269;28;19913;-74
2021/12/13 05:27:07;;;;;;;;;;;3.80;99.90;;;;;;5048745;28;19960;-74
2021/12/13 05:29:34;;;;;;;;;;;3.80;99.90;;;;;;5039831;28;19913;-74
2021/12/13 05:32:08;;;;;;;;;;;3.80;99.90;;;;;;5047107;28;19919;-74
2021/12/13 05:34:36;;;;;;;;;;;3.80;99.90;;;;;;5045304;28;19909;-74
2021/12/13 05:37:03;;;;;;;;;;;3.80;99.90;;;;;;5052120;28;19909;-74
2021/12/13 05:39:28;;;;;;;;;;;3.90;99.90;;;;;;5052018;28;20162;-74
2021/12/13 05:41:57;;;;;;;;;;;4.00;99.90;;;;;;5051939;28;20285;-74
2021/12/13 05:44:25;;;;;;;;;;;4.10;99.90;;;;;;5051379;28;19920;-74
2021/12/13 05:46:51;;;;;;;;;;;4.10;99.90;;;;;;5051769;28;19908;-74
2021/12/13 05:49:21;;;;;;;;;;;4.10;99.90;;;;;;5051757;28;19913;-74
2021/12/13 05:51:49;;;;;;;;;;;4.10;99.90;;;;;;5049529;28;19912;-74
2021/12/13 05:54:22;;;;;;;;;;;4.10;99.90;;;;;;5046972;28;19915;-74
2021/12/13 05:56:53;;;;;;;;;;;4.10;99.90;;;;;;5051556;28;19913;-74
2021/12/13 05:59:20;;;;;;;;;;;4.00;99.90;;;;;;5051575;28;19909;-74
2021/12/13 06:02:04;;;;;;;;;;;3.80;99.90;;;;;;5051568;28;19913;-74
2021/12/13 06:04:32;;;;;;;;;;;3.90;99.90;;;;;;5051392;28;20262;-74
2021/12/13 06:06:58;;;;;;;;;;;3.80;99.90;;;;;;5049986;28;20397;-74
2021/12/13 06:09:40;;;;;;;;;;;4.00;99.90;;;;;;5040480;28;19909;-74
2021/12/13 06:12:08;;;;;;;;;;;3.90;99.90;;;;;;5064284;28;20282;-74
2021/12/13 06:14:33;;;;;;;;;;;4.10;99.90;;;;;;5051025;28;19909;-74
2021/12/13 06:17:04;;;;;;;;;;;4.10;99.90;;;;;;5051472;28;20262;-74
2021/12/13 06:19:35;;;;;;;;;;;4.10;99.90;;;;;;5050094;28;19913;-74
2021/12/13 06:22:09;;;;;;;;;;;4.20;99.90;;;;;;5051328;28;19909;-74
2021/12/13 06:24:37;;;;;;;;;;;4.20;99.90;;;;;;5050911;28;19913;-74
2021/12/13 06:27:18;;;;;;;;;;;4.20;99.90;;;;;;5051287;28;19917;-74
2021/12/13 06:29:52;;;;;;;;;;;4.20;99.90;;;;;;5051371;28;20506;-74
2021/12/13 06:32:23;;;;;;;;;;;4.20;99.90;;;;;;5051262;28;19909;-74
2021/12/13 06:34:49;;;;;;;;;;;4.20;99.90;;;;;;5049524;28;20293;-74
2021/12/13 06:37:21;;;;;;;;;;;4.10;99.90;;;;;;5047339;28;19916;-74
2021/12/13 06:39:47;;;;;;;;;;;4.00;99.90;;;;;;5049030;28;19913;-74
2021/12/13 06:42:14;;;;;;;;;;;3.90;99.90;;;;;;5056179;28;19966;-74
2021/12/13 06:44:42;;;;;;;;;;;3.90;99.90;;;;;;5057267;28;19964;-74
2021/12/13 06:47:11;;;;;;;;;;;3.90;99.90;;;;;;5057574;28;19909;-74
2021/12/13 06:49:37;;;;;;;;;;;3.80;99.90;;;;;;5057388;28;19919;-74
2021/12/13 06:52:18;;;;;;;;;;;3.90;99.90;;;;;;5057535;28;19908;-74
2021/12/13 06:54:57;;;;;;;;;;;3.90;99.90;;;;;;5057110;28;19909;-74
2021/12/13 06:57:42;;;;;;;;;;;3.90;99.90;;;;;;5057462;28;19913;-74
2021/12/13 07:00:17;;;;;;;;;;;3.90;99.90;;;;;;5057502;28;19995;-74
2021/12/13 07:02:47;;;;;;;;;;;3.90;99.90;;;;;;5057255;28;19949;-74
2021/12/13 07:05:25;;;;;;;;;;;3.90;99.90;;;;;;5057286;28;20376;-74
2021/12/13 07:07:55;;;;;;;;;;;3.90;99.90;;;;;;5048668;28;19962;-74
2021/12/13 07:10:24;;;;;;;;;;;3.90;99.90;;;;;;5055769;28;19962;-74
2021/12/13 07:12:55;;;;;;;;;;;3.90;99.90;;;;;;5057111;28;20349;-74
2021/12/13 07:15:23;;;;;;;;;;;3.90;99.90;;;;;;5057311;28;19915;-74
2021/12/13 07:17:59;;;;;;;;;;;3.90;99.90;;;;;;5057108;28;19909;-74
2021/12/13 07:20:34;;;;;;;;;;;3.90;99.90;;;;;;5057407;28;19909;-74
2021/12/13 07:23:00;;;;;;;;;;;4.00;99.90;;;;;;5056902;28;19925;-74
2021/12/13 07:25:25;;;;;;;;;;;3.90;99.90;;;;;;5057257;28;19909;-74
2021/12/13 07:27:51;;;;;;;;;;;3.80;99.90;;;;;;5057288;28;19966;-74
2021/12/13 07:30:33;;;;;;;;;;;3.70;99.90;;;;;;5057313;28;20386;-74
2021/12/13 07:33:09;;;;;;;;;;;3.80;99.90;;;;;;5056945;28;19916;-74
2021/12/13 07:35:36;;;;;;;;;;;3.70;99.90;;;;;;5057382;28;20289;-74
2021/12/13 07:38:05;;;;;;;;;;;3.80;99.90;;;;;;5055740;28;19996;-74
2021/12/13 07:40:44;;;;;;;;;;;3.90;99.90;;;;;;5051823;28;19913;-74
2021/12/13 07:43:09;;;;;;;;;;;4.00;99.90;;;;;;5056787;28;19916;-74
2021/12/13 07:45:47;;;;;;;;;;;4.00;99.90;;;;;;5056347;28;20408;-74
2021/12/13 07:48:33;;;;;;;;;;;4.00;99.90;;;;;;5057327;28;19916;-74
2021/12/13 07:51:12;;;;;;;;;;;4.10;99.90;;;;;;5041932;28;20335;-74
2021/12/13 07:53:40;;;;;;;;;;;4.10;99.90;;;;;;5053414;28;19936;-74
2021/12/13 07:56:06;;;;;;;;;;;4.10;99.90;;;;;;5053733;28;20301;-74
2021/12/13 07:58:34;;;;;;;;;;;4.20;99.90;;;;;;5053857;28;19916;-74
2021/12/13 08:01:07;;;;;;;;;;;4.20;99.90;;;;;;5053841;28;20340;-74
2021/12/13 08:03:32;;;;;;;;;;;4.30;99.90;;;;;;5053735;28;20402;-74
2021/12/13 08:06:04;;;;;;;;;;;4.20;99.90;;;;;;5053975;28;19948;-74
2021/12/13 08:08:32;;;;;;;;;;;4.10;99.90;;;;;;5053918;28;20003;-74
2021/12/13 08:10:59;;;;;;;;;;;4.10;99.90;;;;;;5052555;28;20289;-74
2021/12/13 08:13:26;;;;;;;;;;;4.10;99.90;;;;;;5053470;28;19915;-74
2021/12/13 08:15:53;;;;;;;;;;;4.10;99.90;;;;;;5053826;28;19931;-74
2021/12/13 08:18:22;;;;;;;;;;;4.10;99.90;;;;;;5053600;28;20366;-74
2021/12/13 08:20:49;;;;;;;;;;;4.30;99.90;;;;;;5053632;28;19912;-74
2021/12/13 08:23:17;;;;;;;;;;;4.40;99.90;;;;;;5051098;28;20019;-74
2021/12/13 08:25:45;;;;;;;;;;;4.50;99.90;;;;;;5048026;28;19963;-74
2021/12/13 08:28:13;;;;;;;;;;;4.50;99.90;;;;;;5053468;28;19916;-74
2021/12/13 08:30:52;;;;;;;;;;;4.50;99.90;;;;;;5052210;28;19916;-75
2021/12/13 08:33:21;;;;;;;;;;;4.60;99.90;;;;;;5041966;28;19913;-75
2021/12/13 08:35:50;;;;;;;;;;;4.60;99.90;;;;;;5053104;28;19916;-75
2021/12/13 08:38:28;;;;;;;;;;;4.60;99.90;;;;;;5052513;28;19909;-74
2021/12/13 08:40:53;;;;;;;;;;;4.60;99.90;;;;;;5049890;28;19909;-74
2021/12/13 08:43:32;;;;;;;;;;;4.60;99.90;;;;;;5051264;28;19940;-75
2021/12/13 08:45:58;;;;;;;;;;;4.70;99.90;;;;;;5053151;28;19980;-74
2021/12/13 08:48:24;;;;;;;;;;;4.90;99.90;;;;;;5052940;28;20008;-74
2021/12/13 08:50:51;;;;;;;;;;;4.90;99.90;;;;;;5052993;28;19920;-74
2021/12/13 08:53:24;;;;;;;;;;;5.00;99.90;;;;;;5052591;28;19909;-74
2021/12/13 08:55:59;;;;;;;;;;;4.90;99.90;;;;;;5053306;28;20274;-74
2021/12/13 08:58:25;;;;;;;;;;;4.90;99.90;;;;;;5050487;28;20371;-74
2021/12/13 09:00:54;;;;;;;;;;;5.00;99.90;;;;;;5046754;28;20171;-74
2021/12/13 09:03:28;;;;;;;;;;;5.00;99.90;;;;;;5052179;28;19917;-74
2021/12/13 09:05:56;;;;;;;;;;;5.20;99.90;;;;;;5052135;28;20364;-74
2021/12/13 09:08:27;;;;;;;;;;;5.50;99.90;;;;;;5050484;28;20347;-75
2021/12/13 09:10:52;;;;;;;;;;;5.50;99.90;;;;;;5052368;28;19909;-74
2021/12/13 09:13:31;;;;;;;;;;;5.60;99.90;;;;;;5051781;28;20285;-75
2021/12/13 09:15:57;;;;;;;;;;;5.60;99.90;;;;;;5050046;28;20370;-75
2021/12/13 09:18:23;;;;;;;;;;;5.80;99.90;;;;;;5046526;28;19916;-75
2021/12/13 09:20:51;;;;;;;;;;;5.80;99.90;;;;;;5052513;28;19932;-74
2021/12/13 09:23:22;;;;;;;;;;;5.80;99.90;;;;;;5050806;28;19913;-74
2021/12/13 09:25:50;;;;;;;;;;;6.00;99.90;;;;;;5052065;28;19952;-75
2021/12/13 09:28:17;;;;;;;;;;;5.90;99.90;;;;;;5052169;28;19916;-74
2021/12/13 09:30:45;;;;;;;;;;;6.20;99.90;;;;;;5052365;28;19909;-74
2021/12/13 09:33:13;;;;;;;;;;;6.20;99.90;;;;;;5052103;28;20415;-76
2021/12/13 09:35:53;;;;;;;;;;;6.30;99.90;;;;;;5052366;28;20008;-75
2021/12/13 09:38:39;;;;;;;;;;;6.40;99.90;;;;;;5051718;28;20361;-74
2021/12/13 09:41:11;;;;;;;;;;;6.50;99.90;;;;;;5051838;28;19909;-75
2021/12/13 09:43:39;;;;;;;;;;;6.50;99.90;;;;;;5045276;28;20333;-75
2021/12/13 09:46:05;;;;;;;;;;;6.50;99.90;;;;;;5045201;28;19909;-75
2021/12/13 09:48:42;;;;;;;;;;;6.60;99.90;;;;;;5051621;28;19991;-75
2021/12/13 09:51:10;;;;;;;;;;;6.60;99.90;;;;;;5051599;28;19909;-74
2021/12/13 09:53:37;;;;;;;;;;;6.70;99.90;;;;;;5048329;28;19999;-74
2021/12/13 09:56:06;;;;;;;;;;;6.80;99.90;;;;;;5046140;28;19919;-75
2021/12/13 09:58:37;;;;;;;;;;;7.00;99.90;;;;;;5051545;28;19916;-75
2021/12/13 10:01:09;;;;;;;;;;;7.20;99.90;;;;;;5051594;28;19909;-74
2021/12/13 10:03:46;;;;;;;;;;;7.30;99.90;;;;;;5051151;28;19916;-76
2021/12/13 10:06:13;;;;;;;;;;;7.40;99.90;;;;;;5051485;28;19963;-75
2021/12/13 10:08:41;;;;;;;;;;;7.60;99.90;;;;;;5038703;28;20289;-74
2021/12/13 10:11:09;;;;;;;;;;;7.30;99.90;;;;;;5048743;28;19916;-75
2021/12/13 10:13:36;;;;;;;;;;;7.50;99.90;;;;;;5050696;28;19962;-74
2021/12/13 10:16:07;;;;;;;;;;;7.60;99.90;;;;;;5050463;28;19908;-76
2021/12/13 10:18:33;;;;;;;;;;;7.40;99.90;;;;;;5051393;28;19909;-75
2021/12/13 10:21:19;;;;;;;;;;;7.30;99.90;;;;;;5049913;28;20251;-75
2021/12/13 10:23:51;;;;;;;;;;;7.20;99.90;;;;;;5050457;28;19912;-75
2021/12/13 10:26:17;;;;;;;;;;;7.30;99.90;;;;;;5045387;28;20397;-75
2021/12/13 10:28:52;;;;;;;;;;;7.40;99.90;;;;;;5051163;28;19913;-75
2021/12/13 10:31:21;;;;;;;;;;;7.50;99.90;;;;;;5044875;28;20259;-75
2021/12/13 10:33:47;;;;;;;;;;;7.30;99.90;;;;;;5047747;28;19909;-75
2021/12/13 10:36:13;;;;;;;;;;;7.30;99.90;;;;;;5050955;28;19967;-75
2021/12/13 10:38:50;;;;;;;;;;;7.20;99.90;;;;;;5050780;28;20328;-75
2021/12/13 10:41:18;;;;;;;;;;;7.40;99.90;;;;;;5050970;28;19916;-75
2021/12/13 10:43:46;;;;;;;;;;;7.50;99.90;;;;;;5050719;28;19917;-75
2021/12/13 10:46:18;;;;;;;;;;;7.50;99.90;;;;;;5051018;28;20011;-75
2021/12/13 10:48:46;;;;;;;;;;;7.50;99.90;;;;;;5049744;28;19916;-75
2021/12/13 10:51:14;;;;;;;;;;;7.60;99.90;;;;;;5050617;28;19913;-76
2021/12/13 10:53:41;;;;;;;;;;;7.80;99.90;;;;;;5049201;28;19909;-75
2021/12/13 10:56:13;;;;;;;;;;;8.10;99.90;;;;;;5050240;28;19995;-75
2021/12/13 10:58:42;;;;;;;;;;;8.60;99.90;;;;;;5040161;28;19909;-75
2021/12/13 11:01:10;;;;;;;;;;;9.00;99.90;;;;;;5050890;28;20305;-76
2021/12/13 11:03:38;;;;;;;;;;;8.70;99.90;;;;;;5050478;28;20450;-76
2021/12/13 11:06:04;;;;;;;;;;;8.20;99.90;;;;;;5050899;28;20270;-75
2021/12/13 11:08:30;;;;;;;;;;;8.20;99.90;;;;;;5050793;28;19919;-76
2021/12/13 11:11:00;;;;;;;;;;;8.20;99.90;;;;;;5050767;28;19909;-75
2021/12/13 11:13:27;;;;;;;;;;;8.40;99.90;;;;;;5050695;28;19915;-76
2021/12/13 11:15:56;;;;;;;;;;;8.60;99.90;;;;;;5050727;28;19919;-76
2021/12/13 11:18:27;;;;;;;;;;;9.10;99.90;;;;;;5050755;28;20453;-77
2021/12/13 11:20:55;;;;;;;;;;;9.10;99.90;;;;;;5050610;28;20003;-76
2021/12/13 11:23:20;;;;;;;;;;;9.10;99.90;;;;;;5046440;28;19917;-76
2021/12/13 11:25:50;;;;;;;;;;;8.70;99.90;;;;;;5044485;28;19908;-77
2021/12/13 11:28:16;;;;;;;;;;;9.30;99.90;;;;;;5052811;28;20336;-76
2021/12/13 11:30:42;;;;;;;;;;;9.50;99.90;;;;;;5054232;28;19908;-75
2021/12/13 11:33:09;;;;;;;;;;;9.20;99.90;;;;;;5054244;28;19909;-76
2021/12/13 11:35:51;;;;;;;;;;;9.00;99.90;;;;;;5052818;28;19948;-77
2021/12/13 11:38:29;;;;;;;;;;;9.00;99.90;;;;;;5054241;28;19909;-75
2021/12/13 11:41:27;;;;;;;;;;;8.70;99.90;;;;;;5054259;28;19909;-76
2021/12/13 11:43:55;;;;;;;;;;;8.70;99.90;;;;;;5030711;28;19913;-75
2021/12/13 11:46:28;;;;;;;;;;;8.50;99.90;;;;;;5054129;28;20383;-76
2021/12/13 11:49:11;;;;;;;;;;;8.20;99.90;;;;;;5054058;28;19909;-76
2021/12/13 11:51:39;;;;;;;;;;;7.90;99.90;;;;;;5053537;28;19915;-76
2021/12/13 11:54:10;;;;;;;;;;;7.60;99.90;;;;;;5044931;28;19996;-76
2021/12/13 11:56:36;;;;;;;;;;;7.70;99.90;;;;;;5053720;28;19912;-75
2021/12/13 11:59:17;;;;;;;;;;;7.90;99.90;;;;;;5053890;28;20044;-76
2021/12/13 12:01:45;;;;;;;;;;;7.90;99.90;;;;;;5053684;28;20338;-76
2021/12/13 12:04:11;;;;;;;;;;;7.90;99.90;;;;;;5053150;28;19967;-76
2021/12/13 12:06:48;;;;;;;;;;;7.90;99.90;;;;;;5052892;28;19909;-77
2021/12/13 12:09:29;;;;;;;;;;;8.00;99.90;;;;;;5052043;28;19924;-75
2021/12/13 12:12:06;;;;;;;;;;;8.10;99.90;;;;;;5052661;28;19912;-76
2021/12/13 12:14:33;;;;;;;;;;;8.10;99.90;;;;;;5053335;28;19936;-75
2021/12/13 12:17:00;;;;;;;;;;;8.20;99.90;;;;;;5053534;28;19909;-75
2021/12/13 12:19:31;;;;;;;;;;;8.30;99.90;;;;;;5053436;28;19959;-75
2021/12/13 12:21:57;;;;;;;;;;;8.30;99.90;;;;;;5053569;28;20383;-75
2021/12/13 12:24:27;;;;;;;;;;;8.30;99.90;;;;;;5052867;28;19912;-75
2021/12/13 12:26:55;;;;;;;;;;;8.20;99.90;;;;;;5053131;28;20374;-75
2021/12/13 12:29:26;;;;;;;;;;;8.10;99.90;;;;;;5053142;28;19913;-75
2021/12/13 12:32:19;;;;;;;;;;;8.10;99.90;;;;;;5048016;28;20005;-75
2021/12/13 12:34:51;;;;;;;;;;;8.10;99.90;;;;;;5050367;28;19909;-75
2021/12/13 12:37:26;;;;;;;;;;;8.30;99.90;;;;;;5053194;28;19999;-75
2021/12/13 12:40:07;;;;;;;;;;;8.30;99.90;;;;;;5052193;28;20421;-75
2021/12/13 12:42:34;;;;;;;;;;;8.10;99.90;;;;;;5053040;28;20210;-75
2021/12/13 12:45:04;;;;;;;;;;;8.20;99.90;;;;;;5052713;28;19912;-75
2021/12/13 12:47:49;;;;;;;;;;;8.20;99.90;;;;;;5053106;28;19913;-76
2021/12/13 12:50:17;;;;;;;;;;;8.10;99.90;;;;;;5053024;28;19919;-75
2021/12/13 12:53:05;;;;;;;;;;;7.90;99.90;;;;;;5053088;28;19916;-75
2021/12/13 12:55:37;;;;;;;;;;;8.10;99.90;;;;;;5047089;28;20388;-75
2021/12/13 12:58:08;;;;;;;;;;;8.10;99.90;;;;;;5051670;28;19915;-75
2021/12/13 13:00:33;;;;;;;;;;;8.00;99.90;;;;;;5048431;28;20301;-74
2021/12/13 13:02:59;;;;;;;;;;;8.00;99.90;;;;;;5044393;28;19928;-75
2021/12/13 13:05:27;;;;;;;;;;;8.00;99.90;;;;;;5044718;28;20007;-75
2021/12/13 13:07:53;;;;;;;;;;;8.00;99.90;;;;;;5052960;28;19909;-75
2021/12/13 13:10:24;;;;;;;;;;;8.10;99.90;;;;;;5052580;28;19909;-75
2021/12/13 13:12:55;;;;;;;;;;;8.00;99.90;;;;;;5050918;28;20307;-75
2021/12/13 13:15:35;;;;;;;;;;;8.00;99.90;;;;;;5052329;28;19909;-75
2021/12/13 13:18:09;;;;;;;;;;;8.00;99.90;;;;;;5052187;28;20349;-75
2021/12/13 13:20:54;;;;;;;;;;;7.90;99.90;;;;;;5051624;28;20374;-75
2021/12/13 13:23:22;;;;;;;;;;;7.90;99.90;;;;;;5043796;28;20405;-75
2021/12/13 13:25:50;;;;;;;;;;;7.60;99.90;;;;;;5052224;28;19952;-75
2021/12/13 13:28:21;;;;;;;;;;;7.70;99.90;;;;;;5044074;28;19921;-75
2021/12/13 13:30:49;;;;;;;;;;;7.60;99.90;;;;;;5050824;28;19991;-75
2021/12/13 13:33:16;;;;;;;;;;;7.60;99.90;;;;;;5051583;28;19915;-75
2021/12/13 13:35:41;;;;;;;;;;;7.60;99.90;;;;;;5051958;28;19909;-75
2021/12/13 13:38:14;;;;;;;;;;;7.60;99.90;;;;;;5052015;28;19916;-75
2021/12/13 13:40:39;;;;;;;;;;;7.60;99.90;;;;;;5052000;28;19909;-75
2021/12/13 13:43:08;;;;;;;;;;;7.60;99.90;;;;;;5048575;28;19919;-75
2021/12/13 13:45:35;;;;;;;;;;;7.60;99.90;;;;;;5046068;28;20262;-75
2021/12/13 13:48:04;;;;;;;;;;;7.70;99.90;;;;;;5052297;28;19935;-75
2021/12/13 13:50:41;;;;;;;;;;;7.70;99.90;;;;;;5041957;28;19991;-75
2021/12/13 13:53:16;;;;;;;;;;;7.60;99.90;;;;;;5050083;28;19952;-75
2021/12/13 13:55:47;;;;;;;;;;;7.60;99.90;;;;;;5051971;28;20416;-75
2021/12/13 13:58:18;;;;;;;;;;;7.60;99.90;;;;;;5051702;28;19912;-75
2021/12/13 14:00:48;;;;;;;;;;;7.50;99.90;;;;;;5045562;28;19986;-75
2021/12/13 14:03:14;;;;;;;;;;;7.50;99.90;;;;;;5050909;28;19913;-75
2021/12/13 14:05:40;;;;;;;;;;;7.50;99.90;;;;;;5051831;28;20269;-75
2021/12/13 14:08:20;;;;;;;;;;;7.40;99.90;;;;;;5045415;28;19909;-75
2021/12/13 14:10:46;;;;;;;;;;;7.30;99.90;;;;;;5049103;28;20361;-75
2021/12/13 14:13:11;;;;;;;;;;;7.30;99.90;;;;;;5050220;28;19909;-75
2021/12/13 14:15:38;;;;;;;;;;;7.30;99.90;;;;;;5049476;28;19932;-75
2021/12/13 14:18:06;;;;;;;;;;;7.10;99.90;;;;;;5051291;28;19912;-75
2021/12/13 14:20:37;;;;;;;;;;;7.20;99.90;;;;;;5050654;28;19999;-75
2021/12/13 14:23:11;;;;;;;;;;;7.30;99.90;;;;;;5043563;28;20011;-75
2021/12/13 14:25:38;;;;;;;;;;;7.30;99.90;;;;;;5051299;28;20321;-75
2021/12/13 14:28:06;;;;;;;;;;;7.30;99.90;;;;;;5047213;28;19969;-75
2021/12/13 14:30:36;;;;;;;;;;;7.30;99.90;;;;;;5051129;28;19935;-75
2021/12/13 14:33:02;;;;;;;;;;;7.30;99.90;;;;;;5050725;28;19908;-75
2021/12/13 14:35:30;;;;;;;;;;;7.30;99.90;;;;;;5046613;28;19908;-75
2021/12/13 14:38:06;;;;;;;;;;;7.40;99.90;;;;;;5050709;28;19917;-75
2021/12/13 14:40:42;;;;;;;;;;;7.30;99.90;;;;;;5051100;28;20082;-75
2021/12/13 14:43:15;;;;;;;;;;;7.30;99.90;;;;;;5050607;28;19913;-75
2021/12/13 14:45:41;;;;;;;;;;;7.30;99.90;;;;;;5044636;28;20396;-75
2021/12/13 14:48:06;;;;;;;;;;;7.20;99.90;;;;;;5050946;28;19956;-75
2021/12/13 14:50:32;;;;;;;;;;;7.10;99.90;;;;;;5047117;28;20388;-75
2021/12/13 14:53:04;;;;;;;;;;;7.10;99.90;;;;;;5050552;28;20181;-75
2021/12/13 14:55:32;;;;;;;;;;;7.10;99.90;;;;;;5044761;28;20289;-75